Time;durP1;ratioP1;P1;durP2;ratioP2;P2;SDS_P1;SDS_P2;PMS_P1;PMS_P2;Temp;Humidity;BMP_temperature;BMP_pressure;BME280_temperature;BME280_humidity;BME280_pressure;Samples;Min_cycle;Max_cycle;Signal;HPM_P1;HPM_P2
2023/12/04 00:00:30;;;;;;;23.80;12.20;;;;;;;-4.58;100.00;101761.79;107741;1243;61038;-85
2023/12/04 00:03:19;;;;;;;22.30;12.50;;;;;;;-4.62;100.00;101769.75;107651;1246;73303;-84
2023/12/04 00:05:49;;;;;;;20.90;11.60;;;;;;;-4.64;100.00;101771.78;107876;1245;72672;-85
2023/12/04 00:08:18;;;;;;;21.20;11.70;;;;;;;-4.67;100.00;101772.43;107701;1252;70397;-84
2023/12/04 00:10:47;;;;;;;21.00;12.10;;;;;;;-4.69;100.00;101776.17;107450;1252;73790;-84
2023/12/04 00:13:17;;;;;;;24.00;11.10;;;;;;;-4.72;100.00;101782.94;107561;1246;62637;-82
2023/12/04 00:15:45;;;;;;;22.40;11.50;;;;;;;-4.74;100.00;101788.71;107534;1248;60050;-83
2023/12/04 00:18:14;;;;;;;24.40;12.00;;;;;;;-4.76;100.00;101795.82;107294;1248;70726;-83
2023/12/04 00:20:43;;;;;;;20.70;11.70;;;;;;;-4.78;100.00;101793.77;107574;1246;69630;-81
2023/12/04 00:23:11;;;;;;;25.90;12.50;;;;;;;-4.82;100.00;101790.00;107516;1252;69419;-82
2023/12/04 00:25:40;;;;;;;23.90;12.30;;;;;;;-4.85;100.00;101793.20;107628;1246;72389;-81
2023/12/04 00:28:09;;;;;;;21.00;11.70;;;;;;;-4.86;100.00;101797.79;107488;1245;60472;-81
2023/12/04 00:30:38;;;;;;;25.20;11.00;;;;;;;-4.89;100.00;101796.05;107522;1255;59081;-81
2023/12/04 00:33:07;;;;;;;21.40;11.90;;;;;;;-4.86;100.00;101798.98;107551;1245;70678;-82
2023/12/04 00:35:36;;;;;;;25.10;12.20;;;;;;;-4.88;100.00;101804.23;107377;1254;70092;-83
2023/12/04 00:38:05;;;;;;;20.60;11.30;;;;;;;-4.90;100.00;101806.24;107512;1252;69713;-84
2023/12/04 00:40:34;;;;;;;22.50;11.80;;;;;;;-4.92;100.00;101811.16;107429;1242;74524;-87
2023/12/04 00:43:03;;;;;;;24.10;11.20;;;;;;;-4.97;100.00;101814.52;107465;1245;63264;-86
2023/12/04 00:45:32;;;;;;;22.40;12.50;;;;;;;-5.01;100.00;101811.08;107639;1241;59719;-86
2023/12/04 00:48:03;;;;;;;23.80;11.40;;;;;;;-5.06;100.00;101811.37;107468;1254;72606;-86
2023/12/04 00:50:32;;;;;;;23.40;12.00;;;;;;;-5.07;100.00;101819.01;107517;1246;72609;-86
2023/12/04 00:53:01;;;;;;;23.40;12.80;;;;;;;-5.10;100.00;101826.45;107576;1245;70246;-85
2023/12/04 00:55:30;;;;;;;21.60;12.00;;;;;;;-5.15;100.00;101828.10;107469;1245;71374;-83
2023/12/04 00:57:59;;;;;;;21.20;11.10;;;;;;;-5.17;100.00;101826.88;107356;1243;60222;-83
2023/12/04 01:00:28;;;;;;;21.90;11.90;;;;;;;-5.19;100.00;101827.20;107448;1246;59177;-86
2023/12/04 01:02:57;;;;;;;23.10;11.90;;;;;;;-5.19;100.00;101828.06;107437;1245;70706;-84
2023/12/04 01:05:26;;;;;;;24.60;12.60;;;;;;;-5.19;100.00;101828.91;107387;1253;69789;-84
2023/12/04 01:07:55;;;;;;;24.90;12.60;;;;;;;-5.19;100.00;101831.45;107516;1254;68734;-83
2023/12/04 01:10:24;;;;;;;26.20;13.90;;;;;;;-5.19;100.00;101835.70;107411;1250;71519;-84
2023/12/04 01:12:53;;;;;;;33.40;16.10;;;;;;;-5.20;100.00;101841.13;107366;1252;62697;-83
2023/12/04 01:15:23;;;;;;;31.80;15.60;;;;;;;-5.22;100.00;101843.65;107414;1251;59122;-83
2023/12/04 01:17:52;;;;;;;26.10;12.90;;;;;;;-5.25;100.00;101835.98;107376;1255;72600;-85
2023/12/04 01:20:23;;;;;;;24.30;12.90;;;;;;;-5.27;100.00;101837.48;107432;1241;72754;-84
2023/12/04 01:22:52;;;;;;;22.20;12.10;;;;;;;-5.31;100.00;101844.07;107436;1254;69267;-86
2023/12/04 01:25:21;;;;;;;26.50;12.70;;;;;;;-5.34;100.00;101844.54;107422;1246;71599;-86
2023/12/04 01:27:50;;;;;;;28.00;12.50;;;;;;;-5.38;100.00;101844.49;107418;1242;62276;-85
2023/12/04 01:30:19;;;;;;;25.70;12.50;;;;;;;-5.41;100.00;101848.54;107476;1245;60722;-83
2023/12/04 01:32:47;;;;;;;23.90;12.70;;;;;;;-5.42;100.00;101853.11;107148;1255;73132;-84
2023/12/04 01:35:16;;;;;;;24.70;13.10;;;;;;;-5.44;100.00;101851.73;107427;1246;72365;-82
2023/12/04 01:37:45;;;;;;;27.00;12.90;;;;;;;-5.44;100.00;101852.06;107368;1255;68022;-82
2023/12/04 01:40:15;;;;;;;29.20;14.90;;;;;;;-5.46;100.00;101850.85;107432;1245;73681;-81
2023/12/04 01:42:44;;;;;;;31.60;17.20;;;;;;;-5.46;100.00;101855.09;107297;1244;63053;-82
2023/12/04 01:45:13;;;;;;;28.80;15.30;;;;;;;-5.46;100.00;101861.38;107158;1245;60830;-77
2023/12/04 01:47:43;;;;;;;24.50;12.80;;;;;;;-5.46;100.00;101857.98;107220;1249;71896;-85
2023/12/04 01:50:15;;;;;;;25.70;13.20;;;;;;;-5.49;100.00;101858.30;107302;1251;70933;-80
2023/12/04 01:52:44;;;;;;;26.30;12.90;;;;;;;-5.51;100.00;101855.04;107243;1244;70390;-85
2023/12/04 01:55:15;;;;;;;29.30;14.10;;;;;;;-5.51;100.00;101853.52;107387;1246;71864;-85
2023/12/04 01:57:44;;;;;;;27.00;13.40;;;;;;;-5.53;100.00;101856.55;107567;1244;63171;-82
2023/12/04 02:00:14;;;;;;;26.40;13.90;;;;;;;-5.55;100.00;101860.44;107387;1246;61361;-83
2023/12/04 02:02:43;;;;;;;30.20;13.70;;;;;;;-5.58;100.00;101863.62;107273;1245;71825;-81
2023/12/04 02:05:15;;;;;;;25.70;13.50;;;;;;;-5.59;100.00;101865.98;107936;1246;69739;-82
2023/12/04 02:07:44;;;;;;;29.80;14.90;;;;;;;-5.59;100.00;101865.64;107381;1242;70421;-83
2023/12/04 02:10:13;;;;;;;26.60;14.00;;;;;;;-5.60;100.00;101864.61;107452;1251;73366;-82
2023/12/04 02:12:42;;;;;;;26.20;12.60;;;;;;;-5.62;100.00;101866.28;107282;1245;62837;-81
2023/12/04 02:15:11;;;;;;;26.20;14.20;;;;;;;-5.65;100.00;101865.39;107329;1254;61137;-81
2023/12/04 02:17:42;;;;;;;31.00;14.60;;;;;;;-5.69;100.00;101870.11;107252;1246;73639;-81
2023/12/04 02:20:14;;;;;;;25.20;13.20;;;;;;;-5.70;100.00;101875.34;107254;1244;69637;-85
2023/12/04 02:22:43;;;;;;;25.30;11.90;;;;;;;-5.75;100.00;101881.38;107254;1245;68605;-85
2023/12/04 02:25:13;;;;;;;21.70;11.30;;;;;;;-5.81;100.00;101880.45;107326;1243;71866;-86
2023/12/04 02:28:06;;;;;;;28.90;13.90;;;;;;;-5.87;100.00;101877.49;107236;1255;63250;-86
2023/12/04 02:30:37;;;;;;;;;;;;;;;-5.84;100.00;101880.24;107337;1241;60532;-86
2023/12/04 02:33:07;;;;;;;29.30;14.80;;;;;;;-5.79;100.00;101881.34;107287;1245;71112;-86
2023/12/04 02:35:39;;;;;;;27.10;13.20;;;;;;;-5.75;100.00;101891.57;107218;1242;71358;-86
2023/12/04 02:38:09;;;;;;;26.70;13.00;;;;;;;-5.76;100.00;101892.24;107281;1252;69071;-89
2023/12/04 02:40:38;;;;;;;24.10;13.10;;;;;;;-5.78;100.00;101890.34;107297;1245;72736;-84
2023/12/04 02:43:06;;;;;;;26.10;12.70;;;;;;;-5.83;100.00;101884.33;107361;1241;63199;-84
2023/12/04 02:45:35;;;;;;;25.10;12.60;;;;;;;-5.81;100.00;101884.02;107266;1245;60829;-84
2023/12/04 02:48:05;;;;;;;31.00;15.70;;;;;;;-5.77;100.00;101891.73;107178;1244;72949;-83
2023/12/04 02:50:34;;;;;;;29.50;14.00;;;;;;;-5.73;100.00;101896.18;107114;1244;72226;-82
2023/12/04 02:53:03;;;;;;;25.20;13.40;;;;;;;-5.74;100.00;101899.23;107127;1244;71282;-84
2023/12/04 02:55:33;;;;;;;26.30;13.90;;;;;;;-5.74;100.00;101901.08;107243;1255;72090;-83
2023/12/04 02:58:02;;;;;;;26.90;13.70;;;;;;;-5.74;100.00;101902.77;107196;1252;60770;-80
2023/12/04 03:00:31;;;;;;;27.90;13.50;;;;;;;-5.76;100.00;101906.32;107194;1248;60785;-80
2023/12/04 03:03:00;;;;;;;25.70;12.70;;;;;;;-5.79;100.00;101912.05;107250;1244;73662;-83
2023/12/04 03:05:29;;;;;;;27.30;14.30;;;;;;;-5.80;100.00;101914.56;107400;1247;73316;-83
2023/12/04 03:07:58;;;;;;;27.80;14.00;;;;;;;-5.80;100.00;101916.61;107510;1244;70463;-86
2023/12/04 03:10:27;;;;;;;29.10;14.10;;;;;;;-5.80;100.00;101915.42;108075;1241;72738;-82
2023/12/04 03:12:56;;;;;;;33.00;14.20;;;;;;;-5.78;100.00;101914.61;108650;1245;60228;-85
2023/12/04 03:15:28;;;;;;;28.50;14.40;;;;;;;-5.77;100.00;101922.44;107793;1242;59114;-84
2023/12/04 03:18:00;;;;;;;26.90;14.40;;;;;;;-5.78;100.00;101925.98;107426;1244;72917;-85
2023/12/04 03:20:35;;;;;;;27.40;14.30;;;;;;;-5.77;100.00;101920.39;107341;1241;71897;-85
2023/12/04 03:23:03;;;;;;;28.90;14.80;;;;;;;-5.78;100.00;101914.79;107271;1255;70205;-84
2023/12/04 03:25:33;;;;;;;29.90;14.90;;;;;;;-5.79;100.00;101913.56;107553;1248;73161;-85
2023/12/04 03:28:02;;;;;;;31.20;15.00;;;;;;;-5.78;100.00;101915.28;107368;1245;61685;-82
2023/12/04 03:30:31;;;;;;;28.40;14.80;;;;;;;-5.78;100.00;101920.04;107384;1255;59128;-81
2023/12/04 03:33:01;;;;;;;30.60;14.60;;;;;;;-5.78;100.00;101921.90;107260;1244;73437;-81
2023/12/04 03:35:31;;;;;;;27.90;14.60;;;;;;;-5.80;100.00;101925.95;107446;1253;72394;-84
2023/12/04 03:38:00;;;;;;;28.80;14.60;;;;;;;-5.82;100.00;101927.96;107411;1255;70164;-84
2023/12/04 03:40:29;;;;;;;29.30;15.40;;;;;;;-5.83;100.00;101931.67;107449;1244;71331;-82
2023/12/04 03:42:59;;;;;;;29.70;14.90;;;;;;;-5.87;100.00;101935.70;107397;1245;62754;-82
2023/12/04 03:45:28;;;;;;;29.90;14.40;;;;;;;-5.89;100.00;101937.19;107542;1245;61525;-83
2023/12/04 03:47:57;;;;;;;32.10;15.10;;;;;;;-5.94;100.00;101941.73;107788;1252;73943;-82
2023/12/04 03:50:26;;;;;;;27.10;14.40;;;;;;;-5.97;100.00;101942.36;107396;1246;71878;-84
2023/12/04 03:52:56;;;;;;;26.10;14.30;;;;;;;-6.04;100.00;101944.45;107436;1243;70762;-81
2023/12/04 03:55:24;;;;;;;27.80;14.70;;;;;;;-6.05;100.00;101946.48;107385;1254;73623;-80
2023/12/04 03:57:55;;;;;;;26.60;14.30;;;;;;;-6.05;100.00;101946.31;107288;1246;62276;-80
2023/12/04 04:00:25;;;;;;;27.30;14.40;;;;;;;-6.05;100.00;101953.10;107641;1244;58716;-81
2023/12/04 04:02:54;;;;;;;29.60;15.10;;;;;;;-6.03;100.00;101950.23;107789;1251;71620;-82
2023/12/04 04:05:24;;;;;;;27.40;13.80;;;;;;;-6.02;100.00;101950.92;107805;1243;69379;-83
2023/12/04 04:07:53;;;;;;;28.10;13.30;;;;;;;-6.00;100.00;101948.77;108309;1241;70061;-81
2023/12/04 04:10:22;;;;;;;25.40;14.20;;;;;;;-5.96;100.00;101945.92;107885;1245;73573;-79
2023/12/04 04:12:52;;;;;;;29.30;14.60;;;;;;;-5.95;100.00;101945.61;107716;1244;62329;-82
2023/12/04 04:15:21;;;;;;;29.60;14.40;;;;;;;-5.94;100.00;101946.48;107622;1244;59827;-85
2023/12/04 04:17:50;;;;;;;31.40;17.20;;;;;;;-5.93;100.00;101949.20;107349;1245;69978;-85
2023/12/04 04:20:20;;;;;;;32.90;18.60;;;;;;;-5.93;100.00;101952.94;107440;1246;71026;-85
2023/12/04 04:22:49;;;;;;;38.60;20.60;;;;;;;-5.94;100.00;101954.45;107350;1246;69037;-85
2023/12/04 04:25:18;;;;;;;36.40;19.50;;;;;;;-5.94;100.00;101952.25;107284;1244;74085;-84
2023/12/04 04:27:47;;;;;;;33.80;18.90;;;;;;;-5.93;100.00;101947.85;107188;1255;61761;-85
2023/12/04 04:30:17;;;;;;;35.40;17.90;;;;;;;-5.92;100.00;101945.66;107378;1245;61216;-85
2023/12/04 04:32:46;;;;;;;29.60;16.10;;;;;;;-5.90;100.00;101945.50;107296;1251;71598;-86
2023/12/04 04:35:15;;;;;;;31.60;16.70;;;;;;;-5.92;100.00;101944.13;107296;1241;71300;-84
2023/12/04 04:37:44;;;;;;;29.70;16.10;;;;;;;-5.93;100.00;101942.42;107273;1244;69223;-84
2023/12/04 04:40:17;;;;;;;28.40;14.80;;;;;;;-5.96;100.00;101942.38;107346;1244;73278;-84
2023/12/04 04:42:47;;;;;;;30.80;15.50;;;;;;;-5.99;100.00;101944.52;107402;1242;60730;-84
2023/12/04 04:45:16;;;;;;;34.90;16.20;;;;;;;-6.04;100.00;101944.80;107440;1244;60161;-83
2023/12/04 04:47:45;;;;;;;31.10;14.80;;;;;;;-6.09;100.00;101946.41;107465;1244;72770;-83
2023/12/04 04:50:15;;;;;;;29.70;15.80;;;;;;;-6.16;100.00;101951.56;107461;1241;72236;-85
2023/12/04 04:52:44;;;;;;;26.50;16.40;;;;;;;-6.20;100.00;101952.52;107337;1246;69979;-85
2023/12/04 04:55:13;;;;;;;29.90;15.70;;;;;;;-6.18;100.00;101948.13;107155;1245;72554;-85
2023/12/04 04:58:02;;;;;;;31.70;15.70;;;;;;;-6.25;100.00;101940.90;107084;1245;61168;-86
2023/12/04 05:00:31;;;;;;;30.40;16.10;;;;;;;-6.25;100.00;101936.66;107045;1254;60560;-79
2023/12/04 05:03:00;;;;;;;91.00;37.30;;;;;;;-6.25;100.00;101937.34;107056;1256;69957;-79
2023/12/04 05:05:29;;;;;;;41.10;19.50;;;;;;;-6.26;100.00;101938.16;107236;1248;72403;-80
2023/12/04 05:07:59;;;;;;;53.60;22.90;;;;;;;-6.26;100.00;101937.84;106993;1248;67379;-75
2023/12/04 05:10:29;;;;;;;54.00;23.40;;;;;;;-6.22;100.00;101935.88;107040;1246;71753;-77
2023/12/04 05:12:58;;;;;;;42.50;19.10;;;;;;;-6.25;100.00;101934.80;107449;1245;62855;-84
2023/12/04 05:15:27;;;;;;;45.40;21.30;;;;;;;-6.29;100.00;101936.25;107242;1245;59331;-78
2023/12/04 05:17:56;;;;;;;41.50;21.50;;;;;;;-6.33;100.00;101936.52;107199;1246;70789;-79
2023/12/04 05:20:25;;;;;;;44.00;23.20;;;;;;;-6.33;100.00;101939.08;107472;1246;69882;-78
2023/12/04 05:22:57;;;;;;;45.60;21.80;;;;;;;-6.29;100.00;101940.31;107363;1248;70082;-81
2023/12/04 05:25:26;;;;;;;48.30;23.30;;;;;;;-6.26;100.00;101943.59;107222;1256;72263;-75
2023/12/04 05:28:05;;;;;;;41.40;20.30;;;;;;;-6.22;100.00;101941.13;107133;1253;62971;-76
2023/12/04 05:30:34;;;;;;;44.50;20.10;;;;;;;-6.24;100.00;101946.86;107194;1244;59932;-76
2023/12/04 05:33:03;;;;;;;37.90;19.50;;;;;;;-6.25;100.00;101951.40;107134;1245;69673;-75
2023/12/04 05:35:36;;;;;;;36.80;19.50;;;;;;;-6.17;100.00;101953.93;107146;1248;69461;-76
2023/12/04 05:38:05;;;;;;;44.60;19.50;;;;;;;-6.19;100.00;101952.02;107105;1245;70069;-75
2023/12/04 05:40:34;;;;;;;31.50;14.20;;;;;;;-6.24;100.00;101956.69;107058;1244;74281;-73
2023/12/04 05:43:03;;;;;;;26.90;14.40;;;;;;;-6.29;100.00;101955.75;107309;1245;63134;-76
2023/12/04 05:45:33;;;;;;;48.00;22.40;;;;;;;-6.33;100.00;101961.80;106880;1256;61374;-75
2023/12/04 05:48:04;;;;;;;39.80;19.60;;;;;;;-6.33;100.00;101965.19;106885;1245;72802;-75
2023/12/04 05:50:33;;;;;;;49.90;22.00;;;;;;;-6.29;100.00;101977.97;106858;1248;70285;-76
2023/12/04 05:53:02;;;;;;;42.30;20.80;;;;;;;-6.24;100.00;101982.80;106792;1248;68291;-75
2023/12/04 05:55:33;;;;;;;42.20;21.20;;;;;;;-6.20;100.00;101982.86;106990;1256;71993;-78
2023/12/04 05:58:02;;;;;;;40.80;20.00;;;;;;;-6.19;100.00;101985.94;107031;1256;63444;-77
2023/12/04 06:00:31;;;;;;;41.30;20.70;;;;;;;-6.11;100.00;101983.17;106951;1255;61124;-74
2023/12/04 06:03:01;;;;;;;44.30;20.80;;;;;;;-6.04;100.00;101977.70;107025;1245;74248;-77
2023/12/04 06:05:30;;;;;;;46.80;21.80;;;;;;;-5.96;100.00;101978.86;106989;1248;69663;-74
2023/12/04 06:07:59;;;;;;;42.00;20.30;;;;;;;-5.83;100.00;101985.30;106973;1249;68910;-75
2023/12/04 06:10:28;;;;;;;40.30;20.70;;;;;;;-5.78;100.00;101993.69;106963;1248;71855;-77
2023/12/04 06:12:57;;;;;;;41.60;20.00;;;;;;;-5.74;100.00;101992.73;107011;1246;60783;-80
2023/12/04 06:15:26;;;;;;;29.20;15.10;;;;;;;-5.71;100.00;101996.00;107041;1255;60362;-78
2023/12/04 06:17:58;;;;;;;32.90;16.10;;;;;;;-5.72;100.00;102000.92;107142;1246;71650;-76
2023/12/04 06:20:27;;;;;;;35.70;17.80;;;;;;;-5.69;100.00;102003.15;107188;1245;70788;-75
2023/12/04 06:22:58;;;;;;;35.50;18.40;;;;;;;-5.64;100.00;102004.09;107226;1245;67730;-75
2023/12/04 06:25:28;;;;;;;51.20;25.00;;;;;;;-5.56;100.00;102002.66;107136;1243;73836;-75
2023/12/04 06:27:57;;;;;;;61.70;29.70;;;;;;;-5.47;100.00;102004.14;107185;1253;62516;-76
2023/12/04 06:30:29;;;;;;;52.70;26.10;;;;;;;-5.37;100.00;102010.23;107242;1251;61056;-84
2023/12/04 06:32:59;;;;;;;53.50;26.80;;;;;;;-5.29;100.00;102016.11;107277;1256;70653;-75
2023/12/04 06:35:28;;;;;;;45.10;23.80;;;;;;;-5.21;100.00;102018.62;107252;1251;72195;-76
2023/12/04 06:38:03;;;;;;;47.30;23.70;;;;;;;-5.18;100.00;102018.14;107407;1250;68242;-70
2023/12/04 06:40:33;;;;;;;41.20;21.70;;;;;;;-5.15;100.00;102021.08;107274;1255;70873;-76
2023/12/04 06:43:03;;;;;;;42.50;19.80;;;;;;;-5.12;100.00;102029.42;107365;1245;61132;-79
2023/12/04 06:45:34;;;;;;;44.40;21.30;;;;;;;-5.03;100.00;102033.30;107234;1248;58837;-81
2023/12/04 06:48:03;;;;;;;39.80;20.50;;;;;;;-4.90;100.00;102036.84;107407;1245;71586;-80
2023/12/04 06:50:32;;;;;;;45.90;22.10;;;;;;;-4.79;100.00;102040.20;107143;1243;70266;-81
2023/12/04 06:53:01;;;;;;;48.20;23.50;;;;;;;-4.70;100.00;102038.95;107261;1254;68950;-81
2023/12/04 06:55:30;;;;;;;48.70;26.20;;;;;;;-4.61;100.00;102036.17;107232;1245;73220;-83
2023/12/04 06:57:59;;;;;;;104.70;50.10;;;;;;;-4.53;100.00;102041.52;107183;1248;59902;-81
2023/12/04 07:00:28;;;;;;;73.90;40.10;;;;;;;-4.47;100.00;102045.67;107611;1245;60676;-81
2023/12/04 07:02:58;;;;;;;60.70;32.10;;;;;;;-4.46;100.00;102046.36;107414;1244;73513;-80
2023/12/04 07:05:27;;;;;;;65.00;32.70;;;;;;;-4.42;100.00;102048.11;107420;1245;71730;-82
2023/12/04 07:07:57;;;;;;;66.20;35.00;;;;;;;-4.36;100.00;102056.32;107176;1244;70586;-81
2023/12/04 07:10:28;;;;;;;54.90;28.60;;;;;;;-4.28;100.00;102054.04;107260;1246;72230;-81
2023/12/04 07:12:59;;;;;;;46.90;26.00;;;;;;;-4.12;100.00;102052.83;107090;1249;61552;-81
2023/12/04 07:15:29;;;;;;;62.60;30.00;;;;;;;-3.97;100.00;102059.10;107244;1245;61314;-81
2023/12/04 07:17:58;;;;;;;57.50;29.30;;;;;;;-3.85;100.00;102059.03;107685;1246;71290;-82
2023/12/04 07:20:27;;;;;;;44.60;25.90;;;;;;;-3.72;100.00;102057.77;107561;1244;72130;-82
2023/12/04 07:22:57;;;;;;;39.20;22.50;;;;;;;-3.54;100.00;102059.63;107279;1248;68979;-83
2023/12/04 07:25:27;;;;;;;39.60;22.20;;;;;;;-3.38;100.00;102065.20;107208;1256;73911;-80
2023/12/04 07:27:57;;;;;;;37.50;21.40;;;;;;;-3.23;100.00;102067.83;107220;1245;63192;-82
2023/12/04 07:30:26;;;;;;;38.90;21.10;;;;;;;-3.07;100.00;102072.54;107180;1247;61370;-83
2023/12/04 07:32:55;;;;;;;47.20;26.10;;;;;;;-3.05;100.00;102070.33;107306;1245;74640;-81
2023/12/04 07:35:26;;;;;;;61.70;31.30;;;;;;;-3.04;100.00;102076.98;107332;1254;72047;-81
2023/12/04 07:37:55;;;;;;;55.50;28.40;;;;;;;-3.10;100.00;102085.64;107337;1244;69102;-81
2023/12/04 07:40:24;;;;;;;51.30;28.50;;;;;;;-3.18;100.00;102088.82;107166;1248;71434;-80
2023/12/04 07:42:53;;;;;;;48.10;24.50;;;;;;;-3.19;100.00;102095.98;107100;1248;59843;-83
2023/12/04 07:45:23;;;;;;;42.90;23.00;;;;;;;-3.06;100.00;102095.39;107398;1248;58671;-82
2023/12/04 07:47:53;;;;;;;41.20;20.90;;;;;;;-3.06;100.00;102098.61;107290;1256;71844;-82
2023/12/04 07:50:22;;;;;;;41.00;21.90;;;;;;;-3.07;100.00;102106.96;107255;1248;70350;-84
2023/12/04 07:52:51;;;;;;;41.00;23.10;;;;;;;-3.03;100.00;102107.51;107342;1245;68500;-82
2023/12/04 07:55:20;;;;;;;47.80;24.20;;;;;;;-2.93;100.00;102105.69;107372;1248;71094;-82
2023/12/04 07:57:50;;;;;;;42.00;21.70;;;;;;;-2.90;100.00;102107.90;107279;1256;60558;-81
2023/12/04 08:00:22;;;;;;;45.70;23.70;;;;;;;-2.89;100.00;102111.67;107662;1245;60846;-81
2023/12/04 08:02:51;;;;;;;42.90;23.40;;;;;;;-2.87;100.00;102115.61;107633;1255;71968;-82
2023/12/04 08:05:20;;;;;;;42.60;23.80;;;;;;;-2.78;100.00;102110.88;107360;1248;70938;-81
2023/12/04 08:07:49;;;;;;;40.20;20.90;;;;;;;-2.59;100.00;102111.65;107664;1250;70835;-82
2023/12/04 08:10:19;;;;;;;36.10;19.30;;;;;;;-2.35;100.00;102115.66;107754;1254;72593;-81
2023/12/04 08:12:49;;;;;;;37.60;18.10;;;;;;;-2.32;100.00;102122.84;107666;1245;59895;-79
2023/12/04 08:15:18;;;;;;;36.40;19.40;;;;;;;-2.30;100.00;102126.08;107989;1243;61455;-81
2023/12/04 08:17:48;;;;;;;48.50;23.70;;;;;;;-2.29;100.00;102128.14;108156;1245;73370;-81
2023/12/04 08:20:22;;;;;;;35.20;20.10;;;;;;;-2.22;100.00;102128.50;107927;1256;69008;-80
2023/12/04 08:23:03;;;;;;;39.50;19.10;;;;;;;-1.95;100.00;102121.40;107877;1244;70428;-80
2023/12/04 08:25:38;;;;;;;31.80;17.10;;;;;;;-1.71;100.00;102119.55;108030;1245;71826;-79
2023/12/04 08:28:08;;;;;;;34.80;18.70;;;;;;;-1.59;100.00;102118.02;108135;1245;61236;-81
2023/12/04 08:30:39;;;;;;;38.60;19.30;;;;;;;-1.59;100.00;102122.81;107402;1254;60927;-81
2023/12/04 08:33:08;;;;;;;42.30;19.80;;;;;;;-1.52;100.00;102126.05;107452;1256;72558;-84
2023/12/04 08:35:37;;;;;;;29.10;13.60;;;;;;;-1.39;100.00;102131.00;107401;1244;69514;-76
2023/12/04 08:38:07;;;;;;;21.20;9.20;;;;;;;-1.19;100.00;102125.54;107395;1245;68754;-83
2023/12/04 08:40:36;;;;;;;24.10;13.60;;;;;;;-1.15;100.00;102123.64;107298;1248;71402;-81
2023/12/04 08:43:05;;;;;;;16.50;8.80;;;;;;;-1.29;100.00;102120.23;107557;1245;61236;-81
2023/12/04 08:45:34;;;;;;;35.40;18.30;;;;;;;-1.29;100.00;102123.67;108027;1254;59723;-79
2023/12/04 08:48:04;;;;;;;27.00;14.70;;;;;;;-1.25;100.00;102126.39;107529;1244;73022;-83
2023/12/04 08:50:34;;;;;;;29.40;14.90;;;;;;;-1.27;100.00;102129.46;107422;1246;72363;-82
2023/12/04 08:53:04;;;;;;;34.60;17.90;;;;;;;-1.29;100.00;102125.88;107378;1254;69010;-84
2023/12/04 08:55:33;;;;;;;31.40;15.20;;;;;;;-1.31;100.00;102126.73;107292;1256;72585;-82
2023/12/04 08:58:04;;;;;;;23.90;13.90;;;;;;;-0.97;100.00;102122.41;107079;1248;59731;-82
2023/12/04 09:00:35;;;;;;;22.70;12.20;;;;;;;-0.86;100.00;102115.73;107186;1243;61034;-81
2023/12/04 09:03:04;;;;;;;22.60;11.40;;;;;;;-0.84;100.00;102114.01;107068;1245;72047;-82
2023/12/04 09:05:40;;;;;;;28.10;14.00;;;;;;;-0.88;100.00;102118.29;107069;1243;71742;-81
2023/12/04 09:08:10;;;;;;;26.10;14.10;;;;;;;-0.94;100.00;102118.82;107093;1245;68534;-82
2023/12/04 09:10:59;;;;;;;29.00;15.00;;;;;;;-0.89;100.00;102117.25;107048;1245;72152;-80
2023/12/04 09:13:47;;;;;;;21.50;10.50;;;;;;;-0.88;100.00;102112.83;107029;1246;61267;-80
2023/12/04 09:16:17;;;;;;;20.50;10.80;;;;;;;-0.84;100.00;102103.23;107078;1248;61395;-81
2023/12/04 09:18:47;;;;;;;27.20;13.30;;;;;;;-0.89;100.00;102103.41;107133;1248;74019;-80
2023/12/04 09:21:16;;;;;;;27.90;14.40;;;;;;;-0.88;100.00;102099.47;106978;1245;71966;-81
2023/12/04 09:23:49;;;;;;;28.70;15.30;;;;;;;-0.86;100.00;102094.00;106996;1248;69250;-83
2023/12/04 09:26:19;;;;;;;28.80;14.10;;;;;;;-0.85;100.00;102091.25;107247;1256;72746;-80
2023/12/04 09:28:48;;;;;;;27.60;15.20;;;;;;;-0.72;100.00;102088.64;107211;1248;62089;-82
2023/12/04 09:31:19;;;;;;;27.30;14.90;;;;;;;-0.67;100.00;102091.37;107130;1246;60742;-83
2023/12/04 09:33:48;;;;;;;24.10;13.20;;;;;;;-0.37;100.00;102083.52;107268;1245;72846;-82
2023/12/04 09:36:18;;;;;;;23.30;13.60;;;;;;;-0.08;100.00;102073.59;107245;1244;71621;-82
2023/12/04 09:38:47;;;;;;;26.50;14.80;;;;;;;0.19;100.00;102072.20;107190;1245;70930;-81
2023/12/04 09:41:16;;;;;;;32.90;17.50;;;;;;;0.42;100.00;102065.84;107379;1245;72833;-81
2023/12/04 09:43:47;;;;;;;37.20;19.30;;;;;;;0.42;100.00;102065.34;107133;1247;60653;-81
2023/12/04 09:46:17;;;;;;;30.60;16.80;;;;;;;0.67;100.00;102068.88;107213;1251;60899;-81
2023/12/04 09:48:47;;;;;;;22.50;14.80;;;;;;;1.00;100.00;102070.59;107127;1243;70611;-81
2023/12/04 09:51:21;;;;;;;24.50;15.10;;;;;;;1.16;100.00;102068.89;107425;1256;70114;-79
2023/12/04 09:53:52;;;;;;;18.90;9.40;;;;;;;1.38;100.00;102067.05;107272;1245;68781;-81
2023/12/04 09:56:24;;;;;;;20.30;11.50;;;;;;;1.44;100.00;102063.20;107239;1245;72058;-81
2023/12/04 09:59:00;;;;;;;14.20;7.50;;;;;;;1.26;100.00;102066.86;107132;1247;61381;-79
2023/12/04 10:01:30;;;;;;;27.20;14.90;;;;;;;1.03;100.00;102064.38;107301;1245;59524;-82
2023/12/04 10:04:05;;;;;;;25.90;15.70;;;;;;;0.62;100.00;102059.48;107422;1245;73592;-81
2023/12/04 10:06:38;;;;;;;25.30;14.20;;;;;;;0.68;100.00;102058.23;107395;1245;70869;-80
2023/12/04 10:09:11;;;;;;;28.50;15.20;;;;;;;0.76;100.00;102050.27;107264;1248;70311;-81
2023/12/04 10:11:51;;;;;;;21.20;12.00;;;;;;;1.04;100.00;102047.55;107317;1249;74005;-80
2023/12/04 10:14:22;;;;;;;22.00;13.10;;;;;;;1.20;100.00;102044.62;107268;1254;62694;-79
2023/12/04 10:16:54;;;;;;;19.40;11.10;;;;;;;1.22;100.00;102039.10;107204;1255;59033;-81
2023/12/04 10:19:29;;;;;;;18.60;10.20;;;;;;;1.35;100.00;102050.96;107188;1256;71651;-79
2023/12/04 10:22:00;;;;;;;22.90;13.20;;;;;;;1.13;100.00;102055.70;107156;1243;71247;-80
2023/12/04 10:24:38;;;;;;;17.50;8.70;;;;;;;1.25;100.00;102057.61;107163;1244;70498;-81
2023/12/04 10:27:11;;;;;;;12.40;6.60;;;;;;;1.23;100.00;102052.82;107185;1248;72168;-81
2023/12/04 10:29:49;;;;;;;20.10;9.50;;;;;;;1.43;100.00;102050.32;107205;1245;59575;-79
2023/12/04 10:32:21;;;;;;;21.70;12.70;;;;;;;1.53;100.00;102050.71;107356;1244;61476;-82
2023/12/04 10:34:50;;;;;;;24.50;13.70;;;;;;;1.59;100.00;102048.41;107143;1248;73162;-80
2023/12/04 10:37:20;;;;;;;18.10;11.50;;;;;;;1.61;100.00;102045.11;107121;1255;72867;-81
2023/12/04 10:39:51;;;;;;;22.50;13.50;;;;;;;2.02;100.00;102039.00;107311;1246;69080;-81
2023/12/04 10:42:30;;;;;;;21.40;11.10;;;;;;;2.10;100.00;102034.58;107226;1244;71846;-82
2023/12/04 10:44:59;;;;;;;20.60;11.90;;;;;;;2.44;100.00;102039.02;107277;1245;59444;-80
2023/12/04 10:47:33;;;;;;;20.90;13.00;;;;;;;2.48;100.00;102038.94;106995;1244;60679;-85
2023/12/04 10:50:03;;;;;;;21.40;12.70;;;;;;;2.27;100.00;102038.77;107094;1245;73210;-82
2023/12/04 10:52:36;;;;;;;23.30;13.00;;;;;;;2.40;100.00;102037.86;107082;1245;70143;-81
2023/12/04 10:55:08;;;;;;;12.70;6.90;;;;;;;2.86;100.00;102036.33;106980;1256;68506;-80
2023/12/04 10:57:41;;;;;;;15.30;9.70;;;;;;;3.38;100.00;102034.26;107390;1244;73223;-81
2023/12/04 11:00:16;;;;;;;17.40;10.60;;;;;;;3.12;100.00;102034.11;107283;1247;59212;-80
2023/12/04 11:02:48;;;;;;;15.50;10.00;;;;;;;3.08;100.00;102036.08;107223;1250;60179;-81
2023/12/04 11:05:21;;;;;;;14.90;8.60;;;;;;;2.98;100.00;102030.42;107263;1244;72202;-84
2023/12/04 11:07:56;;;;;;;17.90;10.90;;;;;;;3.42;100.00;102025.90;107196;1248;72465;-80